Time;durP1;ratioP1;P1;durP2;ratioP2;P2;SDS_P1;SDS_P2;PMS_P1;PMS_P2;Temp;Humidity;BMP_temperature;BMP_pressure;BME280_temperature;BME280_humidity;BME280_pressure;Samples;Min_cycle;Max_cycle;Signal;HPM_P1;HPM_P2
2023/04/16 00:00:49;;;;;;;107.55;35.63;;;10.80;99.90;;;;;;5096843;28;20058;-72
2023/04/16 00:03:15;;;;;;;103.88;36.17;;;10.90;99.90;;;;;;5096799;28;20425;-72
2023/04/16 00:05:41;;;;;;;94.43;32.65;;;10.80;99.90;;;;;;5095430;28;20047;-71
2023/04/16 00:08:07;;;;;;;88.03;32.75;;;10.60;99.90;;;;;;5096447;28;20106;-72
2023/04/16 00:10:36;;;;;;;124.28;38.88;;;10.40;99.90;;;;;;5096726;28;20051;-72
2023/04/16 00:13:01;;;;;;;101.10;35.95;;;10.40;99.90;;;;;;5095719;28;20047;-72
2023/04/16 00:15:27;;;;;;;104.00;36.67;;;10.40;99.90;;;;;;5096695;28;20040;-72
2023/04/16 00:17:53;;;;;;;86.07;35.25;;;10.50;99.90;;;;;;5096415;28;20129;-72
2023/04/16 00:20:19;;;;;;;104.35;37.40;;;10.60;99.90;;;;;;5096597;28;20040;-72
2023/04/16 00:22:45;;;;;;;86.15;34.55;;;10.60;99.90;;;;;;5096694;28;20047;-72
2023/04/16 00:25:12;;;;;;;118.05;39.08;;;10.60;99.90;;;;;;5096478;28;20047;-72
2023/04/16 00:27:37;;;;;;;116.13;39.13;;;10.70;99.90;;;;;;5095251;28;20043;-72
2023/04/16 00:30:03;;;;;;;118.25;37.13;;;10.50;99.90;;;;;;5078438;28;20334;-72
2023/04/16 00:32:29;;;;;;;140.60;39.63;;;10.60;99.90;;;;;;5096301;28;20036;-72
2023/04/16 00:34:55;;;;;;;99.63;36.30;;;10.60;99.90;;;;;;5096540;28;20036;-72
2023/04/16 00:37:21;;;;;;;120.38;39.67;;;10.60;99.90;;;;;;5096227;28;20040;-72
2023/04/16 00:39:46;;;;;;;127.53;41.55;;;10.70;99.90;;;;;;5096179;28;20044;-72
2023/04/16 00:42:12;;;;;;;94.47;34.90;;;10.70;99.90;;;;;;5096464;28;20322;-72
2023/04/16 00:44:37;;;;;;;87.85;34.88;;;10.70;99.90;;;;;;5095042;28;20345;-72
2023/04/16 00:47:06;;;;;;;128.05;40.03;;;10.70;99.90;;;;;;5096346;28;20044;-72
2023/04/16 00:49:32;;;;;;;92.85;34.35;;;10.70;99.90;;;;;;5096425;28;20040;-72
2023/04/16 00:51:58;;;;;;;103.88;36.33;;;10.60;99.90;;;;;;5096382;28;20040;-72
2023/04/16 00:54:24;;;;;;;86.22;35.45;;;10.50;99.90;;;;;;5096398;28;20371;-72
2023/04/16 00:56:50;;;;;;;116.60;40.17;;;10.40;99.90;;;;;;5095936;28;20036;-72
2023/04/16 00:59:16;;;;;;;91.25;37.92;;;10.40;99.90;;;;;;5096141;28;20090;-72
2023/04/16 01:01:42;;;;;;;81.32;36.47;;;10.30;99.90;;;;;;5096337;28;20317;-72
2023/04/16 01:04:08;;;;;;;94.88;36.65;;;10.40;99.90;;;;;;5096257;28;20044;-72
2023/04/16 01:06:33;;;;;;;113.45;39.78;;;10.50;99.90;;;;;;5099896;28;20098;-72
2023/04/16 01:08:59;;;;;;;122.03;42.45;;;10.40;99.90;;;;;;5099463;28;20052;-72
2023/04/16 01:11:25;;;;;;;83.78;34.85;;;10.30;99.90;;;;;;5099928;28;20046;-72
2023/04/16 01:13:50;;;;;;;127.53;42.90;;;10.10;99.90;;;;;;5099480;28;20088;-72
2023/04/16 01:16:16;;;;;;;136.18;42.53;;;10.10;99.90;;;;;;5099664;28;20068;-72
2023/04/16 01:18:42;;;;;;;93.80;37.83;;;10.30;99.90;;;;;;5099689;28;20051;-72
2023/04/16 01:21:08;;;;;;;100.70;37.53;;;10.30;99.90;;;;;;5098271;28;20050;-72
2023/04/16 01:23:34;;;;;;;135.77;43.30;;;10.30;99.90;;;;;;5099546;28;20044;-73
2023/04/16 01:25:59;;;;;;;96.88;39.38;;;10.40;99.90;;;;;;5099123;28;20051;-72
2023/04/16 01:28:25;;;;;;;90.85;38.40;;;10.40;99.90;;;;;;5098782;28;20036;-72
2023/04/16 01:30:51;;;;;;;125.43;44.17;;;10.40;99.90;;;;;;5099352;28;20076;-72
2023/04/16 01:33:18;;;;;;;136.88;43.70;;;10.40;99.90;;;;;;5099423;28;20071;-72
2023/04/16 01:35:43;;;;;;;90.70;39.03;;;10.30;99.90;;;;;;5099913;28;20036;-72
2023/04/16 01:38:09;;;;;;;95.38;37.97;;;10.40;99.90;;;;;;5099077;28;20040;-72
2023/04/16 01:40:36;;;;;;;111.82;39.47;;;10.40;99.90;;;;;;5099203;28;20118;-72
2023/04/16 01:43:02;;;;;;;123.97;39.80;;;10.50;99.90;;;;;;5099224;28;20045;-72
2023/04/16 01:45:30;;;;;;;98.82;38.05;;;10.30;99.90;;;;;;5099130;28;20044;-72
2023/04/16 01:47:55;;;;;;;115.13;38.42;;;10.30;99.90;;;;;;5099100;28;20036;-72
2023/04/16 01:50:22;;;;;;;111.63;38.60;;;10.40;99.90;;;;;;5099076;28;20055;-72
2023/04/16 01:52:48;;;;;;;71.35;33.00;;;10.50;99.90;;;;;;5099011;28;20322;-72
2023/04/16 01:55:14;;;;;;;73.68;31.77;;;10.60;99.90;;;;;;5099025;28;20048;-72
2023/04/16 01:57:40;;;;;;;87.50;34.95;;;10.60;99.90;;;;;;5098255;28;20070;-72
2023/04/16 02:00:07;;;;;;;88.80;35.95;;;10.70;99.90;;;;;;5098856;28;20051;-72
2023/04/16 02:02:34;;;;;;;85.53;34.72;;;10.50;99.90;;;;;;5097563;28;20048;-72
2023/04/16 02:05:00;;;;;;;84.93;35.22;;;10.60;99.90;;;;;;5098730;28;20044;-72
2023/04/16 02:07:26;;;;;;;88.82;34.22;;;10.60;99.90;;;;;;5098303;28;20409;-72
2023/04/16 02:09:53;;;;;;;79.28;32.20;;;10.60;99.90;;;;;;5098457;28;20040;-72
2023/04/16 02:12:19;;;;;;;90.55;34.42;;;10.50;99.90;;;;;;5098596;28;20040;-72
2023/04/16 02:14:46;;;;;;;101.65;35.97;;;10.60;99.90;;;;;;5098574;28;20040;-72
2023/04/16 02:17:11;;;;;;;96.75;36.55;;;10.50;99.90;;;;;;5098533;28;20051;-72
2023/04/16 02:19:37;;;;;;;106.80;37.65;;;10.40;99.90;;;;;;5098434;28;20387;-72
2023/04/16 02:22:03;;;;;;;100.45;36.17;;;10.30;99.90;;;;;;5098435;28;20052;-72
2023/04/16 02:24:29;;;;;;;109.05;36.78;;;10.30;99.90;;;;;;5098317;28;20037;-72
2023/04/16 02:26:55;;;;;;;101.07;38.17;;;10.20;99.90;;;;;;5097868;28;20040;-72
2023/04/16 02:29:21;;;;;;;108.93;38.83;;;10.30;99.90;;;;;;5098066;28;20502;-72
2023/04/16 02:31:48;;;;;;;93.38;36.10;;;10.40;99.90;;;;;;5098310;28;20040;-72
2023/04/16 02:34:13;;;;;;;83.88;34.55;;;10.40;99.90;;;;;;5098256;28;20083;-72
2023/04/16 02:36:39;;;;;;;91.80;36.22;;;10.50;99.90;;;;;;5097858;28;20071;-72
2023/04/16 02:39:05;;;;;;;116.95;38.05;;;10.50;99.90;;;;;;5098129;28;20067;-72
2023/04/16 02:41:31;;;;;;;127.47;40.70;;;10.60;99.90;;;;;;5097800;28;20071;-72
2023/04/16 02:43:56;;;;;;;117.53;40.42;;;10.70;99.90;;;;;;5098012;28;20036;-72
2023/04/16 02:46:22;;;;;;;121.85;40.60;;;10.70;99.90;;;;;;5097886;28;20040;-72
2023/04/16 02:48:48;;;;;;;102.85;37.80;;;10.70;99.90;;;;;;5097910;28;20032;-72
2023/04/16 02:51:13;;;;;;;129.48;44.28;;;10.70;99.90;;;;;;5096800;28;20048;-72
2023/04/16 02:53:39;;;;;;;113.40;40.50;;;10.80;99.90;;;;;;5097848;28;20034;-72
2023/04/16 02:56:05;;;;;;;127.13;41.70;;;10.70;99.90;;;;;;5096750;28;20352;-72
2023/04/16 02:58:31;;;;;;;132.35;43.50;;;10.70;99.90;;;;;;5097355;28;20044;-72
2023/04/16 03:00:57;;;;;;;141.43;43.30;;;10.60;99.90;;;;;;5097395;28;20036;-72
2023/04/16 03:03:22;;;;;;;146.73;43.33;;;10.60;99.90;;;;;;5097633;28;20039;-72
2023/04/16 03:05:48;;;;;;;115.05;39.75;;;10.60;99.90;;;;;;5097258;28;20414;-72
2023/04/16 03:08:14;;;;;;;85.05;35.90;;;10.70;99.90;;;;;;5097433;28;20059;-72
2023/04/16 03:10:40;;;;;;;144.57;42.33;;;10.60;99.90;;;;;;5097491;28;20040;-72
2023/04/16 03:13:06;;;;;;;126.00;40.72;;;10.70;99.90;;;;;;5097224;28;20036;-72
2023/04/16 03:15:32;;;;;;;113.47;39.47;;;10.70;99.90;;;;;;5097480;28;20046;-72
2023/04/16 03:17:58;;;;;;;135.85;40.80;;;10.70;99.90;;;;;;5097405;28;20115;-72
2023/04/16 03:20:24;;;;;;;133.20;40.40;;;10.70;99.90;;;;;;5097090;28;20040;-72
2023/04/16 03:22:53;;;;;;;119.90;39.80;;;10.60;99.90;;;;;;5097342;28;20333;-72
2023/04/16 03:25:19;;;;;;;140.20;42.33;;;10.60;99.90;;;;;;5097201;28;20079;-72
2023/04/16 03:27:45;;;;;;;109.88;37.45;;;10.70;99.90;;;;;;5095004;28;20068;-72
2023/04/16 03:30:11;;;;;;;116.68;38.00;;;10.70;99.90;;;;;;5096936;28;20115;-72
2023/04/16 03:32:37;;;;;;;138.77;41.50;;;10.80;99.90;;;;;;5097167;28;20081;-72
2023/04/16 03:35:06;;;;;;;110.90;38.80;;;10.80;99.90;;;;;;5097155;28;20044;-72
2023/04/16 03:37:33;;;;;;;113.80;38.67;;;10.70;99.90;;;;;;5097125;28;20048;-72
2023/04/16 03:39:59;;;;;;;88.25;33.45;;;10.60;99.90;;;;;;5096792;28;20422;-72
2023/04/16 03:42:24;;;;;;;125.35;38.72;;;10.60;99.90;;;;;;5097049;28;20122;-72
2023/04/16 03:44:52;;;;;;;78.97;32.53;;;10.60;99.90;;;;;;5096934;28;20409;-72
2023/04/16 03:47:18;;;;;;;139.05;39.75;;;10.50;99.90;;;;;;5096685;28;20054;-72
2023/04/16 03:49:44;;;;;;;90.65;34.72;;;10.50;99.90;;;;;;5096969;28;20032;-72
2023/04/16 03:52:10;;;;;;;114.13;34.38;;;10.40;99.90;;;;;;5096905;28;20321;-72
2023/04/16 03:54:35;;;;;;;120.82;39.35;;;10.40;99.90;;;;;;5096626;28;20451;-72
2023/04/16 03:57:01;;;;;;;120.65;36.78;;;10.20;99.90;;;;;;5096474;28;20118;-72
2023/04/16 03:59:27;;;;;;;108.60;35.40;;;10.20;99.90;;;;;;5096519;28;20050;-72
2023/04/16 04:01:52;;;;;;;139.68;38.42;;;10.20;99.90;;;;;;5096793;28;20052;-72
2023/04/16 04:04:18;;;;;;;134.88;37.92;;;10.40;99.90;;;;;;5096681;28;20092;-72
2023/04/16 04:06:45;;;;;;;104.88;33.22;;;10.40;99.90;;;;;;5096760;28;20128;-72
2023/04/16 04:09:11;;;;;;;92.72;33.22;;;10.50;99.90;;;;;;5096281;28;20052;-72
2023/04/16 04:11:37;;;;;;;108.80;37.05;;;10.60;99.90;;;;;;5096357;28;20055;-72
2023/04/16 04:14:04;;;;;;;85.72;31.70;;;10.60;99.90;;;;;;5096748;28;20100;-72
2023/04/16 04:16:30;;;;;;;82.53;32.35;;;10.60;99.90;;;;;;5096453;28;20048;-72
2023/04/16 04:18:56;;;;;;;109.63;37.92;;;10.50;99.90;;;;;;5096382;28;20040;-72
2023/04/16 04:21:21;;;;;;;115.95;37.03;;;10.50;99.90;;;;;;5096630;28;20097;-72
2023/04/16 04:23:47;;;;;;;113.55;36.35;;;10.50;99.90;;;;;;5096284;28;20071;-72
2023/04/16 04:26:13;;;;;;;127.75;40.22;;;10.30;99.90;;;;;;5096171;28;20040;-72
2023/04/16 04:28:38;;;;;;;90.07;32.63;;;10.40;99.90;;;;;;5096216;28;20036;-72
2023/04/16 04:31:05;;;;;;;135.07;38.45;;;10.30;99.90;;;;;;5096550;28;20043;-72
2023/04/16 04:33:30;;;;;;;91.18;33.55;;;10.40;99.90;;;;;;5096556;28;20040;-72
2023/04/16 04:35:56;;;;;;;109.20;34.60;;;10.30;99.90;;;;;;5096215;28;20062;-72
2023/04/16 04:38:24;;;;;;;127.78;39.08;;;10.40;99.90;;;;;;5096483;28;20036;-72
2023/04/16 04:40:52;;;;;;;144.63;37.97;;;10.50;99.90;;;;;;5099571;28;20036;-72
2023/04/16 04:43:19;;;;;;;92.55;33.20;;;10.40;99.90;;;;;;5099181;28;20051;-72
2023/04/16 04:45:45;;;;;;;80.68;30.77;;;10.40;99.90;;;;;;5099040;28;20051;-72
2023/04/16 04:48:11;;;;;;;95.35;34.40;;;10.40;99.90;;;;;;5100357;28;20089;-72
2023/04/16 04:50:37;;;;;;;117.80;35.28;;;10.50;99.90;;;;;;5098914;28;20119;-72
2023/04/16 04:53:08;;;;;;;111.18;35.47;;;10.60;99.90;;;;;;5099902;28;20139;-72
2023/04/16 04:55:37;;;;;;;111.93;35.50;;;10.50;99.90;;;;;;5100118;28;20429;-72
2023/04/16 04:58:07;;;;;;;116.95;37.00;;;10.50;99.90;;;;;;5098427;28;20036;-72
2023/04/16 05:00:33;;;;;;;125.72;37.38;;;10.50;99.90;;;;;;5100064;28;20096;-72
2023/04/16 05:03:04;;;;;;;94.95;32.97;;;10.40;99.90;;;;;;5099784;28;20036;-72
2023/04/16 05:05:29;;;;;;;101.43;34.53;;;10.50;99.90;;;;;;5099589;28;20444;-72
2023/04/16 05:07:55;;;;;;;125.32;37.03;;;10.60;99.90;;;;;;5099565;28;20090;-72
2023/04/16 05:10:21;;;;;;;122.88;38.30;;;10.60;99.90;;;;;;5100269;28;20341;-72
2023/04/16 05:12:47;;;;;;;103.05;33.75;;;10.60;99.90;;;;;;5099787;28;20153;-72
2023/04/16 05:15:13;;;;;;;77.65;30.67;;;10.60;99.90;;;;;;5099821;28;20051;-72
2023/04/16 05:17:39;;;;;;;102.95;35.40;;;10.60;99.90;;;;;;5099719;28;20032;-72
2023/04/16 05:20:06;;;;;;;86.63;33.95;;;10.70;99.90;;;;;;5100037;28;20451;-72
2023/04/16 05:22:32;;;;;;;87.75;33.33;;;10.60;99.90;;;;;;5099685;28;20055;-72
2023/04/16 05:24:57;;;;;;;119.97;37.30;;;10.50;99.90;;;;;;5099450;28;20040;-72
2023/04/16 05:27:23;;;;;;;78.97;30.63;;;10.60;99.90;;;;;;5099166;28;20039;-72
2023/04/16 05:29:49;;;;;;;102.03;34.83;;;10.60;99.90;;;;;;5099488;28;20163;-72
2023/04/16 05:32:14;;;;;;;115.15;37.67;;;10.60;99.90;;;;;;5099080;28;20392;-72
2023/04/16 05:34:40;;;;;;;121.13;34.78;;;10.70;99.90;;;;;;5099383;28;20115;-72
2023/04/16 05:37:06;;;;;;;79.80;32.63;;;10.70;99.90;;;;;;5099528;28;20044;-72
2023/04/16 05:39:31;;;;;;;96.60;36.17;;;10.50;99.90;;;;;;5098029;28;20047;-72
2023/04/16 05:41:57;;;;;;;106.63;36.00;;;10.60;99.90;;;;;;5099220;28;20067;-72
2023/04/16 05:44:22;;;;;;;132.20;35.70;;;10.50;99.90;;;;;;5098165;28;20039;-72
2023/04/16 05:46:48;;;;;;;113.65;34.58;;;10.60;99.90;;;;;;5097892;28;20040;-72
2023/04/16 05:49:17;;;;;;;100.43;34.30;;;10.60;99.90;;;;;;5099087;28;20104;-72
2023/04/16 05:51:43;;;;;;;98.80;33.20;;;10.60;99.90;;;;;;5098451;28;20063;-72
2023/04/16 05:54:09;;;;;;;111.25;34.17;;;10.70;99.90;;;;;;5098951;28;20414;-72
2023/04/16 05:56:34;;;;;;;98.97;33.72;;;10.60;99.90;;;;;;5099040;28;20044;-72
2023/04/16 05:59:00;;;;;;;109.65;33.78;;;10.60;99.90;;;;;;5098468;28;20043;-72
2023/04/16 06:01:25;;;;;;;98.05;31.55;;;10.70;99.90;;;;;;5098896;28;20129;-72
2023/04/16 06:03:51;;;;;;;105.07;31.35;;;10.50;99.90;;;;;;5098499;28;20047;-72
2023/04/16 06:06:17;;;;;;;109.00;33.78;;;10.40;99.90;;;;;;5098391;28;20051;-72
2023/04/16 06:08:42;;;;;;;93.65;32.03;;;10.40;99.90;;;;;;5098361;28;20048;-72
2023/04/16 06:11:08;;;;;;;111.82;34.63;;;10.40;99.90;;;;;;5098663;28;20036;-72
2023/04/16 06:13:34;;;;;;;91.38;30.75;;;10.40;99.90;;;;;;5097667;28;20048;-72
2023/04/16 06:15:59;;;;;;;87.53;32.63;;;10.40;99.90;;;;;;5098615;28;20072;-72
2023/04/16 06:18:25;;;;;;;95.50;31.65;;;10.40;99.90;;;;;;5098598;28;20047;-72
2023/04/16 06:20:51;;;;;;;89.78;33.30;;;10.20;99.90;;;;;;5098513;28;20090;-72
2023/04/16 06:23:16;;;;;;;94.78;33.15;;;10.30;99.90;;;;;;5098494;28;20444;-72
2023/04/16 06:25:42;;;;;;;79.70;29.63;;;10.30;99.90;;;;;;5098383;28;20047;-72
2023/04/16 06:28:08;;;;;;;79.63;31.33;;;10.40;99.90;;;;;;5097663;28;20040;-72
2023/04/16 06:30:33;;;;;;;86.30;30.88;;;10.50;99.90;;;;;;5098357;28;20028;-71
2023/04/16 06:32:59;;;;;;;105.25;32.03;;;10.40;99.90;;;;;;5097951;28;20032;-72
2023/04/16 06:35:25;;;;;;;93.07;32.00;;;10.40;99.90;;;;;;5097986;28;20040;-72
2023/04/16 06:37:51;;;;;;;86.50;32.05;;;10.40;99.90;;;;;;5098223;28;20136;-71
2023/04/16 06:40:16;;;;;;;80.78;30.63;;;10.40;99.90;;;;;;5097894;28;20043;-72
2023/04/16 06:42:42;;;;;;;84.55;30.58;;;10.40;99.90;;;;;;5098130;28;20043;-71
2023/04/16 06:45:08;;;;;;;93.65;34.10;;;10.40;99.90;;;;;;5098025;28;20052;-73
2023/04/16 06:47:33;;;;;;;94.05;33.50;;;10.60;99.90;;;;;;5098046;28;20526;-71
2023/04/16 06:49:59;;;;;;;80.47;29.52;;;10.80;99.90;;;;;;5097982;28;20473;-72
2023/04/16 06:52:25;;;;;;;90.07;30.27;;;10.90;99.90;;;;;;5097592;28;20036;-71
2023/04/16 06:54:50;;;;;;;78.68;31.33;;;10.80;99.90;;;;;;5097896;28;20071;-72
2023/04/16 06:57:16;;;;;;;92.72;31.55;;;10.80;99.90;;;;;;5097401;28;20046;-71
2023/04/16 06:59:42;;;;;;;85.15;29.27;;;10.80;99.90;;;;;;5097819;28;20097;-72
2023/04/16 07:02:10;;;;;;;100.55;29.77;;;10.90;99.90;;;;;;5097017;28;20046;-72
2023/04/16 07:04:36;;;;;;;86.32;28.40;;;10.90;99.90;;;;;;5097387;28;20044;-72
2023/04/16 07:07:02;;;;;;;81.18;28.95;;;11.00;99.90;;;;;;5096715;28;20084;-72
2023/04/16 07:09:27;;;;;;;67.80;26.45;;;11.10;99.90;;;;;;5097646;28;20055;-72
2023/04/16 07:11:53;;;;;;;70.90;25.63;;;11.30;99.90;;;;;;5097576;28;20363;-72
2023/04/16 07:14:19;;;;;;;87.68;27.92;;;11.40;99.90;;;;;;5097507;28;20047;-72
2023/04/16 07:16:44;;;;;;;78.15;27.77;;;11.30;99.90;;;;;;5079382;28;20042;-72
2023/04/16 07:19:10;;;;;;;74.25;25.25;;;11.40;99.90;;;;;;5097141;28;20089;-72
2023/04/16 07:21:36;;;;;;;76.32;26.45;;;11.20;99.90;;;;;;5096476;28;20042;-72
2023/04/16 07:24:02;;;;;;;80.47;27.33;;;11.20;99.90;;;;;;5097377;28;20035;-72
2023/04/16 07:26:28;;;;;;;65.70;25.00;;;11.20;99.90;;;;;;5097071;28;20437;-72
2023/04/16 07:28:53;;;;;;;62.22;23.05;;;11.20;99.90;;;;;;5096549;28;20078;-72
2023/04/16 07:31:19;;;;;;;67.63;24.25;;;11.30;99.90;;;;;;5096402;28;20036;-72
2023/04/16 07:33:45;;;;;;;54.95;23.67;;;11.60;99.90;;;;;;5095978;28;20329;-72
2023/04/16 07:36:11;;;;;;;68.10;25.27;;;11.90;99.90;;;;;;5095857;28;20469;-72
2023/04/16 07:38:36;;;;;;;66.60;22.75;;;12.00;99.90;;;;;;5096234;28;20109;-72
2023/04/16 07:41:02;;;;;;;62.20;24.25;;;11.90;99.90;;;;;;5097066;28;20050;-72
2023/04/16 07:43:28;;;;;;;72.50;23.48;;;12.00;99.90;;;;;;5097032;28;20063;-72
2023/04/16 07:45:54;;;;;;;57.05;22.77;;;12.00;99.90;;;;;;5095686;28;20051;-67
2023/04/16 07:48:20;;;;;;;72.90;24.15;;;11.70;99.90;;;;;;5097024;28;20032;-68
2023/04/16 07:50:46;;;;;;;65.35;23.20;;;11.60;99.90;;;;;;5096058;28;20043;-66
2023/04/16 07:53:12;;;;;;;64.68;22.90;;;11.50;99.90;;;;;;5096985;28;20486;-67
2023/04/16 07:55:37;;;;;;;64.50;24.70;;;11.50;99.90;;;;;;5095988;28;20433;-67
2023/04/16 07:58:05;;;;;;;63.60;23.85;;;11.40;99.90;;;;;;5094924;28;20081;-68
2023/04/16 08:00:38;;;;;;;60.15;24.10;;;11.30;99.90;;;;;;5096943;28;20047;-67
2023/04/16 08:03:03;;;;;;;57.60;23.15;;;11.30;99.90;;;;;;5095699;28;20422;-67
2023/04/16 08:05:29;;;;;;;74.32;23.90;;;11.40;99.90;;;;;;5096448;28;20051;-67
2023/04/16 08:07:55;;;;;;;64.57;23.77;;;11.70;99.90;;;;;;5096452;28;20056;-66
2023/04/16 08:10:21;;;;;;;62.72;24.67;;;11.60;99.90;;;;;;5096486;28;20079;-67
2023/04/16 08:12:46;;;;;;;67.28;23.30;;;11.70;99.90;;;;;;5096797;28;20040;-68
2023/04/16 08:15:12;;;;;;;61.47;23.23;;;11.80;99.90;;;;;;5100715;28;20497;-69
2023/04/16 08:17:38;;;;;;;62.88;22.40;;;11.80;99.90;;;;;;5100579;28;20044;-67
2023/04/16 08:20:04;;;;;;;60.33;23.92;;;11.70;99.90;;;;;;5100955;28;20044;-67
2023/04/16 08:22:30;;;;;;;72.90;25.25;;;11.90;99.90;;;;;;5100902;28;20047;-67
2023/04/16 08:24:55;;;;;;;62.60;22.60;;;12.00;99.90;;;;;;5099854;28;20044;-67
2023/04/16 08:27:22;;;;;;;61.35;21.35;;;12.10;99.90;;;;;;5100315;28;20044;-67
2023/04/16 08:29:48;;;;;;;61.17;21.35;;;12.20;99.90;;;;;;5100452;28;20123;-67
2023/04/16 08:32:14;;;;;;;53.53;20.05;;;12.20;99.90;;;;;;5100408;28;20468;-68
2023/04/16 08:34:40;;;;;;;54.25;20.40;;;12.40;99.90;;;;;;5099643;28;20131;-68
2023/04/16 08:37:06;;;;;;;44.58;19.65;;;12.50;99.90;;;;;;5099581;28;20035;-68
2023/04/16 08:39:32;;;;;;;42.20;18.80;;;12.40;99.90;;;;;;5100298;28;20104;-67
2023/04/16 08:41:58;;;;;;;58.15;19.38;;;12.40;99.90;;;;;;5100564;28;20106;-67
2023/04/16 08:44:32;;;;;;;46.78;17.73;;;12.50;99.90;;;;;;5100435;28;20043;-67
2023/04/16 08:46:59;;;;;;;44.25;17.33;;;12.60;99.90;;;;;;5100187;28;20413;-68
2023/04/16 08:49:25;;;;;;;47.47;17.15;;;12.60;99.90;;;;;;5100136;28;20428;-67
2023/04/16 08:51:53;;;;;;;40.97;17.27;;;12.80;99.90;;;;;;5100093;28;20042;-68
2023/04/16 08:54:45;;;;;;;44.80;16.92;;;13.00;99.90;;;;;;5100420;28;20042;-72
2023/04/16 08:57:15;;;;;;;49.05;17.80;;;12.90;99.90;;;;;;5100345;28;20039;-72
2023/04/16 08:59:46;;;;;;;40.33;16.88;;;12.90;99.90;;;;;;5100238;28;20103;-72
2023/04/16 09:02:12;;;;;;;43.55;17.58;;;12.80;99.90;;;;;;5099906;28;20036;-68
2023/04/16 09:04:39;;;;;;;46.10;17.90;;;12.90;99.90;;;;;;5091987;28;20059;-73
2023/04/16 09:07:07;;;;;;;47.22;17.33;;;13.00;99.90;;;;;;5099489;28;20040;-67
2023/04/16 09:09:33;;;;;;;45.63;17.73;;;13.20;99.90;;;;;;5099549;28;20338;-68
2023/04/16 09:12:00;;;;;;;41.20;16.02;;;13.40;99.90;;;;;;5099929;28;20032;-67
2023/04/16 09:14:26;;;;;;;38.60;16.55;;;13.30;99.90;;;;;;5099872;28;20040;-67
2023/04/16 09:16:53;;;;;;;49.78;16.55;;;13.50;99.90;;;;;;5099795;28;20097;-67
2023/04/16 09:19:19;;;;;;;32.28;14.98;;;13.70;99.90;;;;;;5099505;28;20046;-67
2023/04/16 09:21:46;;;;;;;41.58;16.15;;;13.70;99.90;;;;;;5099719;28;20040;-67
2023/04/16 09:24:12;;;;;;;34.65;14.60;;;13.80;99.90;;;;;;5098714;28;20036;-68
2023/04/16 09:26:40;;;;;;;39.03;16.23;;;13.80;99.90;;;;;;5098493;28;20108;-68
2023/04/16 09:29:05;;;;;;;39.65;16.20;;;13.80;99.90;;;;;;5099195;28;20036;-68
2023/04/16 09:31:31;;;;;;;35.30;14.93;;;14.10;99.90;;;;;;5099515;28;20429;-68
2023/04/16 09:34:05;;;;;;;40.90;16.08;;;14.30;99.90;;;;;;5099509;28;20413;-68
2023/04/16 09:36:32;;;;;;;40.05;15.57;;;14.30;99.90;;;;;;5099516;28;20036;-68
2023/04/16 09:38:58;;;;;;;36.47;14.55;;;14.30;99.90;;;;;;5099399;28;20044;-68
2023/04/16 09:41:29;;;;;;;32.40;14.40;;;14.20;99.90;;;;;;5099298;28;20058;-69
2023/04/16 09:44:00;;;;;;;48.33;16.45;;;14.20;99.90;;;;;;5099261;28;20048;-68
2023/04/16 09:46:41;;;;;;;29.48;15.70;;;14.00;99.90;;;;;;5098626;28;20333;-69
2023/04/16 09:49:14;;;;;;;33.50;14.77;;;14.00;99.90;;;;;;5099034;28;20036;-69
2023/04/16 09:51:45;;;;;;;33.10;13.93;;;14.20;99.90;;;;;;5098653;28;20046;-70
2023/04/16 09:54:11;;;;;;;32.15;15.27;;;14.30;99.90;;;;;;5098558;28;20044;-73
2023/04/16 09:56:45;;;;;;;30.15;14.50;;;14.50;99.90;;;;;;5098852;28;20039;-69
2023/04/16 09:59:20;;;;;;;32.10;15.00;;;14.50;99.90;;;;;;5098665;28;20043;-69
2023/04/16 10:01:48;;;;;;;33.70;15.10;;;14.50;99.90;;;;;;5098969;28;20127;-67
2023/04/16 10:04:15;;;;;;;34.33;15.82;;;14.60;99.90;;;;;;5097680;28;20040;-68
2023/04/16 10:06:41;;;;;;;35.42;15.07;;;14.80;99.90;;;;;;5098851;28;20086;-68
2023/04/16 10:09:10;;;;;;;24.60;14.23;;;14.80;99.90;;;;;;5098674;28;20064;-68
2023/04/16 10:11:36;;;;;;;27.60;13.38;;;15.00;99.90;;;;;;5098776;28;20048;-68
2023/04/16 10:14:02;;;;;;;31.90;13.63;;;15.10;99.90;;;;;;5098128;28;20444;-68
2023/04/16 10:16:29;;;;;;;29.77;13.68;;;15.20;99.90;;;;;;5098654;28;20040;-70
2023/04/16 10:18:55;;;;;;;32.55;15.45;;;15.10;99.90;;;;;;5098653;28;20035;-72
2023/04/16 10:21:21;;;;;;;37.08;14.63;;;14.70;99.90;;;;;;5098534;28;20067;-75
2023/04/16 10:23:48;;;;;;;30.92;14.95;;;14.50;99.90;;;;;;5080571;28;20071;-77
2023/04/16 10:26:16;;;;;;;29.63;14.07;;;14.40;99.90;;;;;;5098272;28;20052;-78
2023/04/16 10:28:44;;;;;;;34.45;15.15;;;14.30;99.90;;;;;;5097089;28;20457;-78
2023/04/16 10:31:11;;;;;;;30.83;14.23;;;14.10;99.90;;;;;;5097372;28;20321;-78
2023/04/16 10:33:40;;;;;;;29.92;13.98;;;14.10;99.90;;;;;;5097032;28;20421;-76
2023/04/16 10:36:08;;;;;;;34.17;13.57;;;14.30;99.90;;;;;;5096796;28;20441;-69
2023/04/16 10:38:36;;;;;;;30.20;13.68;;;14.40;99.90;;;;;;5097007;28;20040;-70
2023/04/16 10:41:04;;;;;;;35.83;13.27;;;14.80;99.90;;;;;;5114084;28;20193;-69
2023/04/16 10:43:32;;;;;;;27.50;13.30;;;14.90;99.90;;;;;;5098150;28;20048;-70
2023/04/16 10:46:17;;;;;;;28.98;13.50;;;15.00;99.90;;;;;;5097078;28;20044;-70
2023/04/16 10:48:42;;;;;;;29.25;13.48;;;15.10;99.90;;;;;;5098072;28;20027;-70
2023/04/16 10:51:30;;;;;;;28.52;13.05;;;15.50;99.90;;;;;;5097987;28;20406;-71
2023/04/16 10:54:16;;;;;;;32.50;15.23;;;15.50;99.90;;;;;;5096680;28;20479;-70
2023/04/16 10:56:44;;;;;;;25.73;11.65;;;15.50;99.90;;;;;;5083515;28;20051;-69
2023/04/16 10:59:10;;;;;;;27.13;12.75;;;15.50;99.90;;;;;;5097548;28;20036;-76
2023/04/16 11:01:40;;;;;;;28.33;13.05;;;15.50;99.90;;;;;;5097880;28;20024;-70
2023/04/16 11:04:18;;;;;;;33.05;14.73;;;15.30;99.90;;;;;;5097458;28;20443;-69
2023/04/16 11:07:17;;;;;;;32.45;14.10;;;15.50;99.90;;;;;;5097701;28;20234;-74
2023/04/16 11:09:51;;;;;;;30.48;13.95;;;15.50;99.90;;;;;;5097741;28;20307;-74
2023/04/16 11:12:23;;;;;;;31.35;13.88;;;15.00;99.90;;;;;;5097660;28;20043;-74
2023/04/16 11:14:50;;;;;;;32.00;13.90;;;14.90;99.90;;;;;;5097355;28;20078;-74
2023/04/16 11:17:17;;;;;;;40.65;14.63;;;14.80;99.90;;;;;;5096578;28;20094;-74
2023/04/16 11:19:43;;;;;;;38.25;14.38;;;14.60;99.90;;;;;;5097509;28;20046;-74
2023/04/16 11:22:12;;;;;;;37.10;15.10;;;14.30;99.90;;;;;;5097209;28;20075;-75
2023/04/16 11:24:39;;;;;;;36.67;14.80;;;14.20;99.90;;;;;;5097356;28;20075;-74
2023/04/16 11:27:06;;;;;;;30.70;15.18;;;14.00;99.90;;;;;;5097362;28;20044;-75
2023/04/16 11:29:32;;;;;;;41.53;16.55;;;13.80;99.90;;;;;;5097096;28;20071;-75
2023/04/16 11:31:57;;;;;;;36.92;15.15;;;13.70;99.90;;;;;;5096993;28;20090;-75
2023/04/16 11:34:23;;;;;;;35.97;15.73;;;13.70;99.90;;;;;;5095721;28;20096;-71
2023/04/16 11:36:51;;;;;;;34.88;13.90;;;13.90;99.90;;;;;;5090999;28;20024;-72
2023/04/16 11:39:18;;;;;;;36.28;16.13;;;14.00;99.90;;;;;;5076293;28;20033;-73
2023/04/16 11:41:51;;;;;;;37.60;16.95;;;14.00;99.90;;;;;;5076819;28;20029;-72
2023/04/16 11:44:21;;;;;;;38.33;15.38;;;14.00;99.90;;;;;;5090626;28;20055;-73
2023/04/16 11:46:48;;;;;;;41.97;15.25;;;14.10;99.90;;;;;;5076333;28;20052;-71
2023/04/16 11:49:16;;;;;;;33.28;15.50;;;14.00;99.90;;;;;;5076429;28;20174;-71
2023/04/16 11:51:43;;;;;;;33.30;15.95;;;14.10;99.90;;;;;;5075836;28;20036;-71
2023/04/16 11:54:16;;;;;;;34.95;16.10;;;14.40;99.90;;;;;;5092297;28;20453;-71
2023/04/16 11:56:46;;;;;;;34.28;15.07;;;14.30;99.90;;;;;;5076774;28;20044;-71
2023/04/16 11:59:14;;;;;;;34.13;16.08;;;14.30;99.90;;;;;;5076353;28;20422;-71
2023/04/16 12:01:44;;;;;;;39.83;16.60;;;14.30;99.90;;;;;;5076408;28;20465;-71
2023/04/16 12:04:12;;;;;;;33.80;16.75;;;14.60;99.90;;;;;;5076419;28;20455;-71
2023/04/16 12:06:37;;;;;;;40.00;17.17;;;14.80;99.90;;;;;;5076277;28;20424;-71
2023/04/16 12:09:26;;;;;;;34.58;16.15;;;14.70;99.90;;;;;;5076529;28;20105;-74
2023/04/16 12:11:52;;;;;;;40.42;16.15;;;14.40;99.90;;;;;;5075315;28;20402;-74
2023/04/16 12:14:17;;;;;;;36.38;15.75;;;14.50;99.90;;;;;;5076611;28;20045;-74
2023/04/16 12:16:43;;;;;;;35.60;17.13;;;14.40;99.90;;;;;;5076565;28;20331;-74
2023/04/16 12:19:11;;;;;;;33.53;16.50;;;14.30;99.90;;;;;;5076557;28;20040;-73
2023/04/16 12:21:41;;;;;;;31.58;16.75;;;14.40;99.90;;;;;;5092042;28;20045;-74